Time;durP1;ratioP1;P1;durP2;ratioP2;P2;SDS_P1;SDS_P2;PMS_P1;PMS_P2;Temp;Humidity;BMP_temperature;BMP_pressure;BME280_temperature;BME280_humidity;BME280_pressure;Samples;Min_cycle;Max_cycle;Signal;HPM_P1;HPM_P2
2024/01/11 00:00:37;;;;;;;56.53;3.15;;;;;;;;;;5050760;28;20202;-75
2024/01/11 00:03:05;;;;;;;56.15;2.75;;;;;;;;;;5050736;28;20229;-75
2024/01/11 00:05:32;;;;;;;56.50;3.08;;;;;;;;;;5050350;28;20206;-75
2024/01/11 00:07:59;;;;;;;56.08;3.58;;;;;;;;;;5054242;28;20201;-75
2024/01/11 00:10:27;;;;;;;56.38;3.20;;;;;;;;;;5054288;28;20206;-75
2024/01/11 00:12:54;;;;;;;56.60;3.40;;;;;;;;;;5054207;28;20202;-75
2024/01/11 00:15:22;;;;;;;58.38;5.50;;;;;;;;;;5053864;28;20201;-75
2024/01/11 00:17:49;;;;;;;55.83;2.92;;;;;;;;;;5053894;28;20222;-75
2024/01/11 00:20:16;;;;;;;57.90;5.28;;;;;;;;;;5054288;28;20208;-75
2024/01/11 00:22:43;;;;;;;56.60;2.78;;;;;;;;;;5053882;28;20229;-75
2024/01/11 00:25:10;;;;;;;56.95;4.97;;;;;;;;;;5049435;28;20202;-75
2024/01/11 00:27:39;;;;;;;56.50;3.20;;;;;;;;;;5053997;28;20209;-75
2024/01/11 00:30:07;;;;;;;56.17;2.83;;;;;;;;;;5053586;28;20292;-75
2024/01/11 00:32:34;;;;;;;55.72;2.95;;;;;;;;;;5053699;28;20198;-75
2024/01/11 00:35:01;;;;;;;56.30;2.90;;;;;;;;;;5053448;28;20213;-75
2024/01/11 00:37:28;;;;;;;55.90;2.80;;;;;;;;;;5053676;28;20240;-75
2024/01/11 00:39:55;;;;;;;56.58;3.30;;;;;;;;;;5053564;28;20297;-75
2024/01/11 00:42:22;;;;;;;56.80;4.00;;;;;;;;;;5053382;28;20222;-75
2024/01/11 00:44:51;;;;;;;57.05;3.72;;;;;;;;;;5053464;28;20260;-75
2024/01/11 00:47:18;;;;;;;56.38;3.20;;;;;;;;;;5053399;28;20201;-75
2024/01/11 00:49:45;;;;;;;56.05;2.78;;;;;;;;;;5048855;28;20567;-75
2024/01/11 00:52:13;;;;;;;55.72;2.78;;;;;;;;;;5053005;28;20206;-75
2024/01/11 00:54:41;;;;;;;56.38;3.35;;;;;;;;;;5053252;28;20592;-75
2024/01/11 00:57:08;;;;;;;55.72;3.53;;;;;;;;;;5052983;28;20207;-75
2024/01/11 00:59:35;;;;;;;56.17;3.85;;;;;;;;;;5053176;28;20495;-75
2024/01/11 01:02:03;;;;;;;56.80;3.63;;;;;;;;;;5053302;28;20212;-75
2024/01/11 01:04:30;;;;;;;57.08;4.10;;;;;;;;;;5053138;28;20244;-75
2024/01/11 01:06:57;;;;;;;56.50;2.80;;;;;;;;;;5052714;28;20740;-75
2024/01/11 01:09:25;;;;;;;56.28;2.90;;;;;;;;;;5053084;28;20205;-75
2024/01/11 01:11:52;;;;;;;56.03;3.00;;;;;;;;;;5053045;28;20206;-75
2024/01/11 01:14:19;;;;;;;56.35;3.30;;;;;;;;;;5052609;28;20368;-75
2024/01/11 01:16:46;;;;;;;56.05;3.72;;;;;;;;;;5052517;28;20697;-75
2024/01/11 01:19:14;;;;;;;56.42;3.50;;;;;;;;;;5052992;28;20210;-75
2024/01/11 01:21:41;;;;;;;56.17;3.03;;;;;;;;;;5052793;28;20284;-75
2024/01/11 01:24:09;;;;;;;56.13;3.13;;;;;;;;;;5052622;28;20230;-75
2024/01/11 01:26:36;;;;;;;56.38;3.10;;;;;;;;;;5052488;28;20678;-75
2024/01/11 01:29:03;;;;;;;55.60;2.70;;;;;;;;;;5053081;28;20238;-75
2024/01/11 01:31:37;;;;;;;56.15;3.00;;;;;;;;;;5052678;28;20212;-75
2024/01/11 01:34:04;;;;;;;56.17;3.72;;;;;;;;;;5052415;28;20308;-75
2024/01/11 01:36:32;;;;;;;56.10;2.90;;;;;;;;;;5052315;28;20208;-75
2024/01/11 01:38:59;;;;;;;55.53;3.10;;;;;;;;;;5052520;28;20696;-75
2024/01/11 01:41:26;;;;;;;56.95;4.05;;;;;;;;;;5052372;28;20201;-75
2024/01/11 01:43:53;;;;;;;56.05;3.00;;;;;;;;;;5052238;28;20763;-75
2024/01/11 01:46:23;;;;;;;57.95;5.07;;;;;;;;;;5052229;28;20693;-75
2024/01/11 01:48:51;;;;;;;59.45;4.65;;;;;;;;;;5052477;28;20218;-75
2024/01/11 01:51:18;;;;;;;56.17;3.10;;;;;;;;;;5052206;28;20210;-75
2024/01/11 01:53:46;;;;;;;55.97;2.65;;;;;;;;;;5051925;28;20702;-74
2024/01/11 01:56:14;;;;;;;55.63;2.90;;;;;;;;;;5052020;28;20228;-74
2024/01/11 01:58:42;;;;;;;56.55;3.60;;;;;;;;;;5052345;28;20212;-74
2024/01/11 02:01:10;;;;;;;56.50;3.53;;;;;;;;;;5052204;28;20228;-73
2024/01/11 02:03:37;;;;;;;55.20;2.83;;;;;;;;;;5051799;28;20226;-73
2024/01/11 02:06:06;;;;;;;56.20;3.10;;;;;;;;;;5051652;28;20206;-74
2024/01/11 02:08:34;;;;;;;55.88;3.15;;;;;;;;;;5051790;28;20308;-74
2024/01/11 02:11:03;;;;;;;56.08;3.00;;;;;;;;;;5051992;28;20210;-74
2024/01/11 02:13:30;;;;;;;56.60;4.10;;;;;;;;;;5051851;28;20336;-74
2024/01/11 02:15:57;;;;;;;55.80;2.88;;;;;;;;;;5051786;28;20245;-73
2024/01/11 02:18:24;;;;;;;56.50;3.45;;;;;;;;;;5051644;28;20300;-74
2024/01/11 02:20:51;;;;;;;56.40;4.47;;;;;;;;;;5051581;28;20663;-74
2024/01/11 02:23:19;;;;;;;56.53;3.35;;;;;;;;;;5051179;28;20229;-74
2024/01/11 02:25:48;;;;;;;56.25;3.50;;;;;;;;;;5051357;28;20202;-74
2024/01/11 02:28:15;;;;;;;56.10;3.10;;;;;;;;;;5050905;28;20260;-74
2024/01/11 02:30:42;;;;;;;56.40;3.53;;;;;;;;;;5051389;28;20206;-74
2024/01/11 02:33:10;;;;;;;55.58;2.90;;;;;;;;;;5051274;28;20222;-74
2024/01/11 02:35:39;;;;;;;56.72;3.20;;;;;;;;;;5051170;28;20210;-74
2024/01/11 02:38:07;;;;;;;56.95;4.90;;;;;;;;;;5051253;28;20210;-74
2024/01/11 02:40:34;;;;;;;56.70;5.05;;;;;;;;;;5051287;28;20206;-74
2024/01/11 02:43:10;;;;;;;56.70;3.65;;;;;;;;;;5051139;28;20763;-74
2024/01/11 02:45:37;;;;;;;56.60;3.78;;;;;;;;;;5051270;28;20204;-74
2024/01/11 02:48:04;;;;;;;55.67;2.83;;;;;;;;;;5051217;28;20220;-74
2024/01/11 02:50:32;;;;;;;59.10;5.45;;;;;;;;;;5050797;28;20293;-74
2024/01/11 02:52:59;;;;;;;56.38;3.15;;;;;;;;;;5050855;28;20601;-74
2024/01/11 02:55:26;;;;;;;55.75;2.80;;;;;;;;;;5043148;28;20198;-74
2024/01/11 02:57:53;;;;;;;55.95;3.00;;;;;;;;;;5051241;28;20289;-74
2024/01/11 03:00:21;;;;;;;57.55;3.50;;;;;;;;;;5050987;28;20209;-74
2024/01/11 03:02:48;;;;;;;56.33;2.80;;;;;;;;;;5050947;28;20209;-74
2024/01/11 03:05:16;;;;;;;56.50;3.13;;;;;;;;;;5050970;28;20206;-74
2024/01/11 03:07:43;;;;;;;55.67;2.80;;;;;;;;;;5051378;28;20198;-75
2024/01/11 03:10:10;;;;;;;56.40;2.75;;;;;;;;;;5051250;28;20603;-75
2024/01/11 03:12:37;;;;;;;56.65;4.05;;;;;;;;;;5050887;28;20210;-75
2024/01/11 03:15:05;;;;;;;56.30;2.70;;;;;;;;;;5051035;28;20214;-75
2024/01/11 03:17:33;;;;;;;56.58;3.83;;;;;;;;;;5050963;28;20210;-74
2024/01/11 03:20:00;;;;;;;55.88;3.00;;;;;;;;;;5051164;28;20210;-75
2024/01/11 03:22:27;;;;;;;55.78;2.80;;;;;;;;;;5043617;28;20218;-74
2024/01/11 03:24:55;;;;;;;56.40;2.60;;;;;;;;;;5051137;28;20620;-75
2024/01/11 03:27:22;;;;;;;56.28;2.67;;;;;;;;;;5051176;28;20212;-74
2024/01/11 03:29:49;;;;;;;57.53;4.45;;;;;;;;;;5051100;28;20202;-74
2024/01/11 03:32:17;;;;;;;56.17;2.80;;;;;;;;;;5050826;28;20310;-75
2024/01/11 03:34:45;;;;;;;59.45;5.10;;;;;;;;;;5051010;28;20218;-74
2024/01/11 03:37:12;;;;;;;56.40;4.65;;;;;;;;;;5050927;28;20297;-74
2024/01/11 03:39:39;;;;;;;56.17;3.03;;;;;;;;;;5051382;28;20208;-75
2024/01/11 03:42:06;;;;;;;56.38;3.10;;;;;;;;;;5053132;28;20662;-74
2024/01/11 03:44:33;;;;;;;56.08;2.80;;;;;;;;;;5054511;28;20251;-75
2024/01/11 03:47:01;;;;;;;55.88;3.10;;;;;;;;;;5054590;28;20213;-75
2024/01/11 03:49:28;;;;;;;55.88;2.80;;;;;;;;;;5054721;28;20212;-74
2024/01/11 03:51:56;;;;;;;55.53;2.80;;;;;;;;;;5054404;28;20209;-74
2024/01/11 03:54:23;;;;;;;55.47;2.70;;;;;;;;;;5054286;28;20221;-74
2024/01/11 03:56:50;;;;;;;56.22;2.80;;;;;;;;;;5054367;28;20205;-74
2024/01/11 03:59:18;;;;;;;55.72;2.65;;;;;;;;;;5054341;28;20209;-74
2024/01/11 04:01:45;;;;;;;56.38;3.30;;;;;;;;;;5054325;28;20682;-74
2024/01/11 04:04:12;;;;;;;55.80;2.80;;;;;;;;;;5054061;28;20240;-74
2024/01/11 04:06:39;;;;;;;55.97;2.90;;;;;;;;;;5054276;28;20210;-75
2024/01/11 04:09:08;;;;;;;56.10;2.90;;;;;;;;;;5054441;28;20678;-75
2024/01/11 04:11:35;;;;;;;55.95;2.80;;;;;;;;;;5054177;28;20582;-74
2024/01/11 04:14:02;;;;;;;56.60;3.35;;;;;;;;;;5054165;28;20226;-74
2024/01/11 04:16:29;;;;;;;56.50;3.28;;;;;;;;;;5053907;28;20580;-74
2024/01/11 04:18:56;;;;;;;59.75;4.18;;;;;;;;;;5054144;28;20206;-74
2024/01/11 04:21:24;;;;;;;55.65;2.75;;;;;;;;;;5053884;28;20216;-74
2024/01/11 04:23:51;;;;;;;56.38;2.80;;;;;;;;;;5053765;28;20287;-74
2024/01/11 04:26:20;;;;;;;56.08;2.90;;;;;;;;;;5053631;28;20210;-74
2024/01/11 04:28:47;;;;;;;55.63;2.60;;;;;;;;;;5054135;28;20202;-74
2024/01/11 04:31:16;;;;;;;56.30;3.13;;;;;;;;;;5053857;28;20213;-74
2024/01/11 04:33:44;;;;;;;55.95;2.70;;;;;;;;;;5053734;28;20228;-74
2024/01/11 04:36:11;;;;;;;56.05;2.70;;;;;;;;;;5052910;28;20206;-74
2024/01/11 04:38:38;;;;;;;58.90;4.90;;;;;;;;;;5053724;28;20289;-74
2024/01/11 04:41:08;;;;;;;55.67;2.60;;;;;;;;;;5053630;28;20216;-74
2024/01/11 04:43:38;;;;;;;56.15;2.90;;;;;;;;;;5053629;28;20232;-74
2024/01/11 04:46:05;;;;;;;55.90;3.10;;;;;;;;;;5053142;28;20210;-74
2024/01/11 04:48:32;;;;;;;56.78;4.95;;;;;;;;;;5053633;28;20201;-74
2024/01/11 04:50:59;;;;;;;56.60;4.65;;;;;;;;;;5054142;28;20212;-74
2024/01/11 04:53:26;;;;;;;58.88;4.00;;;;;;;;;;5052286;28;20232;-74
2024/01/11 04:55:53;;;;;;;55.35;3.00;;;;;;;;;;5054699;28;20289;-74
2024/01/11 04:58:21;;;;;;;56.20;3.00;;;;;;;;;;5065845;28;20210;-73
2024/01/11 05:00:50;;;;;;;55.53;2.80;;;;;;;;;;5067324;28;20206;-74
2024/01/11 05:03:17;;;;;;;56.45;2.88;;;;;;;;;;5067141;28;20233;-74
2024/01/11 05:05:44;;;;;;;56.25;2.92;;;;;;;;;;5068106;28;20281;-74
2024/01/11 05:08:11;;;;;;;55.88;3.53;;;;;;;;;;5069074;28;20202;-74
2024/01/11 05:10:38;;;;;;;55.58;3.10;;;;;;;;;;5069425;28;20202;-74
2024/01/11 05:13:05;;;;;;;56.28;2.83;;;;;;;;;;5067078;28;20228;-74
2024/01/11 05:15:33;;;;;;;55.85;2.85;;;;;;;;;;5060516;28;20269;-74
2024/01/11 05:18:01;;;;;;;56.03;2.85;;;;;;;;;;5073625;28;20218;-74
2024/01/11 05:20:29;;;;;;;59.00;3.55;;;;;;;;;;5068090;28;20630;-74
2024/01/11 05:22:56;;;;;;;56.40;2.70;;;;;;;;;;5063047;28;20216;-74
2024/01/11 05:25:24;;;;;;;56.08;3.10;;;;;;;;;;5053288;28;20226;-75
2024/01/11 05:27:51;;;;;;;56.58;4.22;;;;;;;;;;5053055;28;20747;-75
2024/01/11 05:30:18;;;;;;;55.92;3.00;;;;;;;;;;5052878;28;20206;-75
2024/01/11 05:32:45;;;;;;;55.47;2.80;;;;;;;;;;5052440;28;20260;-75
2024/01/11 05:35:14;;;;;;;58.05;4.18;;;;;;;;;;5052574;28;20206;-74
2024/01/11 05:37:41;;;;;;;56.20;2.70;;;;;;;;;;5053025;28;20222;-74
2024/01/11 05:40:09;;;;;;;55.78;2.88;;;;;;;;;;5052866;28;20206;-75
2024/01/11 05:42:37;;;;;;;55.65;2.70;;;;;;;;;;5044393;28;20202;-75
2024/01/11 05:45:04;;;;;;;55.92;3.05;;;;;;;;;;5052496;28;20222;-75
2024/01/11 05:47:31;;;;;;;56.20;2.97;;;;;;;;;;5052145;28;20202;-75
2024/01/11 05:49:59;;;;;;;55.78;2.90;;;;;;;;;;5052712;28;20206;-75
2024/01/11 05:52:27;;;;;;;55.67;2.70;;;;;;;;;;5052723;28;20206;-75
2024/01/11 05:54:54;;;;;;;55.58;3.20;;;;;;;;;;5052267;28;20460;-74
2024/01/11 05:57:21;;;;;;;56.50;3.90;;;;;;;;;;5052122;28;20216;-75
2024/01/11 05:59:49;;;;;;;55.63;3.30;;;;;;;;;;5052283;28;20207;-75
2024/01/11 06:02:16;;;;;;;55.97;2.70;;;;;;;;;;5052096;28;20202;-75
2024/01/11 06:04:43;;;;;;;56.33;3.08;;;;;;;;;;5051341;28;20232;-75
2024/01/11 06:07:11;;;;;;;55.20;3.10;;;;;;;;;;5052126;28;20218;-74
2024/01/11 06:09:39;;;;;;;56.03;2.80;;;;;;;;;;5052724;28;20209;-74
2024/01/11 06:12:07;;;;;;;55.88;3.25;;;;;;;;;;5051964;28;20206;-74
2024/01/11 06:14:34;;;;;;;55.78;3.10;;;;;;;;;;5051665;28;20253;-75
2024/01/11 06:17:01;;;;;;;55.78;3.63;;;;;;;;;;5051653;28;20233;-74
2024/01/11 06:19:28;;;;;;;56.38;2.90;;;;;;;;;;5052178;28;20685;-75
2024/01/11 06:21:55;;;;;;;56.28;3.00;;;;;;;;;;5052280;28;20240;-75
2024/01/11 06:24:21;;;;;;;56.03;2.75;;;;;;;;;;5052225;28;20236;-75
2024/01/11 06:26:50;;;;;;;55.78;2.90;;;;;;;;;;5051679;28;20210;-75
2024/01/11 06:29:17;;;;;;;56.38;3.10;;;;;;;;;;5051966;28;20212;-75
2024/01/11 06:31:44;;;;;;;56.65;3.58;;;;;;;;;;5051835;28;20213;-75
2024/01/11 06:34:11;;;;;;;56.10;2.90;;;;;;;;;;5051646;28;20718;-75
2024/01/11 06:36:38;;;;;;;56.40;3.58;;;;;;;;;;5051241;28;20208;-75
2024/01/11 06:39:05;;;;;;;55.85;2.80;;;;;;;;;;5051705;28;20220;-75
2024/01/11 06:41:32;;;;;;;55.95;3.40;;;;;;;;;;5051324;28;20217;-75
2024/01/11 06:44:01;;;;;;;57.05;3.65;;;;;;;;;;5051518;28;20234;-75
2024/01/11 06:46:28;;;;;;;60.10;5.70;;;;;;;;;;5051196;28;20206;-75
2024/01/11 06:48:55;;;;;;;56.10;2.70;;;;;;;;;;5051775;28;20210;-74
2024/01/11 06:51:22;;;;;;;56.20;2.78;;;;;;;;;;5051466;28;20232;-74
2024/01/11 06:53:49;;;;;;;55.53;3.00;;;;;;;;;;5051303;28;20256;-75
2024/01/11 06:56:16;;;;;;;56.05;2.80;;;;;;;;;;5050527;28;20772;-74
2024/01/11 06:58:44;;;;;;;55.33;2.85;;;;;;;;;;5051407;28;20216;-75
2024/01/11 07:01:12;;;;;;;56.40;3.30;;;;;;;;;;5051313;28;20216;-75
2024/01/11 07:03:40;;;;;;;55.97;2.90;;;;;;;;;;5051034;28;20232;-74
2024/01/11 07:06:07;;;;;;;55.53;2.90;;;;;;;;;;5051021;28;20233;-75
2024/01/11 07:08:35;;;;;;;55.85;2.78;;;;;;;;;;5051454;28;20296;-74
2024/01/11 07:11:02;;;;;;;55.70;2.63;;;;;;;;;;5051201;28;20581;-74
2024/01/11 07:13:29;;;;;;;57.17;4.10;;;;;;;;;;5051156;28;20610;-75
2024/01/11 07:15:57;;;;;;;55.78;2.75;;;;;;;;;;5050618;28;20681;-74
2024/01/11 07:18:26;;;;;;;55.22;2.80;;;;;;;;;;5050898;28;20297;-75
2024/01/11 07:20:54;;;;;;;55.58;2.60;;;;;;;;;;5051084;28;20201;-74
2024/01/11 07:23:21;;;;;;;55.65;3.10;;;;;;;;;;5050900;28;20658;-75
2024/01/11 07:25:48;;;;;;;56.38;3.40;;;;;;;;;;5051094;28;20233;-75
2024/01/11 07:28:17;;;;;;;56.17;2.92;;;;;;;;;;5050773;28;20210;-75
2024/01/11 07:30:44;;;;;;;56.08;2.83;;;;;;;;;;5050717;28;20658;-74
2024/01/11 07:33:12;;;;;;;56.45;3.15;;;;;;;;;;5050514;28;20232;-74
2024/01/11 07:35:40;;;;;;;55.65;2.60;;;;;;;;;;5051012;28;20200;-75
2024/01/11 07:38:07;;;;;;;55.97;3.08;;;;;;;;;;5051081;28;20212;-74
2024/01/11 07:40:34;;;;;;;60.80;3.25;;;;;;;;;;5051084;28;20684;-74
2024/01/11 07:43:03;;;;;;;55.85;2.90;;;;;;;;;;5050795;28;20233;-74
2024/01/11 07:45:31;;;;;;;56.05;2.70;;;;;;;;;;5049790;28;20321;-74
2024/01/11 07:47:58;;;;;;;56.30;3.25;;;;;;;;;;5050874;28;20205;-74
2024/01/11 07:50:25;;;;;;;56.03;2.80;;;;;;;;;;5050422;28;20213;-74
2024/01/11 07:52:53;;;;;;;56.03;2.80;;;;;;;;;;5050509;28;20237;-74
2024/01/11 07:55:23;;;;;;;55.88;2.90;;;;;;;;;;5050498;28;20452;-74
2024/01/11 08:00:54;;;;;;;56.10;2.60;;;;;;;;;;5050347;28;20197;-76
2024/01/11 08:03:21;;;;;;;56.72;2.90;;;;;;;;;;5050280;28;20226;-75
2024/01/11 08:05:50;;;;;;;55.88;2.65;;;;;;;;;;5050246;28;20226;-75
2024/01/11 08:08:18;;;;;;;55.97;2.58;;;;;;;;;;5050732;28;20214;-75
2024/01/11 08:10:45;;;;;;;55.78;2.65;;;;;;;;;;5050776;28;20597;-75
2024/01/11 08:13:13;;;;;;;55.90;2.50;;;;;;;;;;5050280;28;20226;-75
2024/01/11 08:15:40;;;;;;;55.55;2.70;;;;;;;;;;5049956;28;20209;-75
2024/01/11 08:18:07;;;;;;;55.67;2.60;;;;;;;;;;5050441;28;20596;-75
2024/01/11 08:20:34;;;;;;;56.95;3.35;;;;;;;;;;5050454;28;20205;-75
2024/01/11 08:23:01;;;;;;;55.90;2.60;;;;;;;;;;5050412;28;20460;-75
2024/01/11 08:25:30;;;;;;;55.85;2.67;;;;;;;;;;5050456;28;20233;-75
2024/01/11 08:27:57;;;;;;;55.90;2.92;;;;;;;;;;5052792;28;20669;-75
2024/01/11 08:30:24;;;;;;;56.97;4.00;;;;;;;;;;5053786;28;20297;-73
2024/01/11 08:32:51;;;;;;;55.97;2.80;;;;;;;;;;5054070;28;20202;-74
2024/01/11 08:35:18;;;;;;;55.90;3.20;;;;;;;;;;5054181;28;20210;-74
2024/01/11 08:37:45;;;;;;;55.80;2.90;;;;;;;;;;5054162;28;20286;-74
2024/01/11 08:40:13;;;;;;;55.55;3.38;;;;;;;;;;5053929;28;20217;-75
2024/01/11 08:42:42;;;;;;;56.08;2.67;;;;;;;;;;5053849;28;20206;-75
2024/01/11 08:45:09;;;;;;;58.13;5.70;;;;;;;;;;5053870;28;20230;-74
2024/01/11 08:47:38;;;;;;;56.17;2.90;;;;;;;;;;5053676;28;20210;-75
2024/01/11 08:50:06;;;;;;;56.10;3.10;;;;;;;;;;5054239;28;20207;-75
2024/01/11 08:52:34;;;;;;;55.78;2.80;;;;;;;;;;5053665;28;20214;-75
2024/01/11 08:55:02;;;;;;;56.30;3.35;;;;;;;;;;5053882;28;20702;-75
2024/01/11 08:57:29;;;;;;;56.00;3.03;;;;;;;;;;5053512;28;20210;-75
2024/01/11 08:59:57;;;;;;;56.08;3.03;;;;;;;;;;5054168;28;20686;-75
2024/01/11 09:02:25;;;;;;;56.50;3.63;;;;;;;;;;5055534;28;20704;-75
2024/01/11 09:04:52;;;;;;;56.47;3.30;;;;;;;;;;5055856;28;20226;-75
2024/01/11 09:07:19;;;;;;;55.97;3.00;;;;;;;;;;5055767;28;20210;-75
2024/01/11 09:09:46;;;;;;;56.30;2.80;;;;;;;;;;5054130;28;20197;-75
2024/01/11 09:12:13;;;;;;;55.88;2.80;;;;;;;;;;5053505;28;20214;-75
2024/01/11 09:14:40;;;;;;;55.70;2.88;;;;;;;;;;5053073;28;20222;-75
2024/01/11 09:17:09;;;;;;;57.03;3.65;;;;;;;;;;5052813;28;20220;-75
2024/01/11 09:19:39;;;;;;;56.13;3.08;;;;;;;;;;5053472;28;20305;-75
2024/01/11 09:22:08;;;;;;;56.00;2.90;;;;;;;;;;5053539;28;20209;-75
2024/01/11 09:24:36;;;;;;;58.80;4.05;;;;;;;;;;5053736;28;20330;-75
2024/01/11 09:27:04;;;;;;;56.20;3.00;;;;;;;;;;5053266;28;20206;-75
2024/01/11 09:29:31;;;;;;;56.15;2.80;;;;;;;;;;5053130;28;20211;-75
2024/01/11 09:31:58;;;;;;;59.80;3.75;;;;;;;;;;5052826;28;20775;-75
2024/01/11 09:34:26;;;;;;;56.78;3.67;;;;;;;;;;5052515;28;20252;-75
2024/01/11 09:36:55;;;;;;;56.20;2.60;;;;;;;;;;5052474;28;20578;-75
2024/01/11 09:39:23;;;;;;;56.33;3.00;;;;;;;;;;5052769;28;20268;-72
2024/01/11 09:41:53;;;;;;;56.08;2.70;;;;;;;;;;5052702;28;20212;-75
2024/01/11 09:44:20;;;;;;;56.20;3.33;;;;;;;;;;5052615;28;20309;-75
2024/01/11 09:46:48;;;;;;;55.95;2.80;;;;;;;;;;5052392;28;20598;-74
2024/01/11 09:49:16;;;;;;;56.20;3.28;;;;;;;;;;5052622;28;20207;-73
2024/01/11 09:51:46;;;;;;;56.35;3.42;;;;;;;;;;5052776;28;20199;-74
2024/01/11 09:54:14;;;;;;;57.83;4.03;;;;;;;;;;5052085;28;20762;-74
2024/01/11 09:56:42;;;;;;;56.47;3.70;;;;;;;;;;5052535;28;20211;-74
2024/01/11 09:59:10;;;;;;;56.20;3.10;;;;;;;;;;5052728;28;20219;-75
2024/01/11 10:01:37;;;;;;;56.25;2.80;;;;;;;;;;5052246;28;20689;-75
2024/01/11 10:04:05;;;;;;;56.10;3.00;;;;;;;;;;5051829;28;20234;-75
2024/01/11 10:06:34;;;;;;;56.65;3.42;;;;;;;;;;5052190;28;20249;-74
2024/01/11 10:09:03;;;;;;;56.22;3.03;;;;;;;;;;5052532;28;20452;-75
2024/01/11 10:11:30;;;;;;;56.50;3.28;;;;;;;;;;5052306;28;20249;-75
2024/01/11 10:13:59;;;;;;;59.40;4.63;;;;;;;;;;5052351;28;20574;-73
2024/01/11 10:16:26;;;;;;;58.77;3.67;;;;;;;;;;5051880;28;20542;-73
2024/01/11 10:18:55;;;;;;;56.37;3.83;;;;;;;;;;5052692;28;20460;-74
2024/01/11 10:21:22;;;;;;;56.80;3.83;;;;;;;;;;5052991;28;20533;-73
2024/01/11 10:23:50;;;;;;;56.63;3.00;;;;;;;;;;5052974;28;20558;-73
2024/01/11 10:26:21;;;;;;;62.90;3.67;;;;;;;;;;5052342;28;21001;-74
2024/01/11 10:28:48;;;;;;;60.80;3.97;;;;;;;;;;5052184;28;20877;-74
2024/01/11 10:31:15;;;;;;;58.33;3.73;;;;;;;;;;5051902;28;20450;-74
2024/01/11 10:33:43;;;;;;;57.47;4.23;;;;;;;;;;5051782;28;20462;-74
2024/01/11 10:36:10;;;;;;;56.70;3.23;;;;;;;;;;5053206;28;20455;-74
2024/01/11 10:38:38;;;;;;;56.80;3.10;;;;;;;;;;5052989;28;20447;-74
2024/01/11 10:41:06;;;;;;;61.20;4.73;;;;;;;;;;5052949;28;20486;-75
2024/01/11 10:43:38;;;;;;;57.00;3.57;;;;;;;;;;5053716;28;20563;-75
2024/01/11 10:46:07;;;;;;;61.30;4.57;;;;;;;;;;5054035;28;20873;-74
2024/01/11 10:48:37;;;;;;;57.10;3.40;;;;;;;;;;5053988;28;20450;-74
2024/01/11 10:51:07;;;;;;;58.00;3.73;;;;;;;;;;5053577;28;20456;-72
2024/01/11 10:53:40;;;;;;;58.73;5.00;;;;;;;;;;5053460;28;20467;-73
2024/01/11 10:56:07;;;;;;;57.87;3.83;;;;;;;;;;5053146;28;20800;-74
2024/01/11 10:58:36;;;;;;;57.23;3.30;;;;;;;;;;5053894;28;20956;-73
2024/01/11 11:01:05;;;;;;;61.60;4.87;;;;;;;;;;5053032;28;20459;-73
2024/01/11 11:03:32;;;;;;;58.37;5.03;;;;;;;;;;5052545;28;20469;-74
2024/01/11 11:06:00;;;;;;;57.10;3.60;;;;;;;;;;5051847;28;20485;-73
2024/01/11 11:08:28;;;;;;;59.40;4.47;;;;;;;;;;5051896;28;20503;-74
2024/01/11 11:10:57;;;;;;;57.47;3.70;;;;;;;;;;5051723;28;20834;-74
2024/01/11 11:13:24;;;;;;;59.40;5.40;;;;;;;;;;5051927;28;20813;-74
2024/01/11 11:15:53;;;;;;;59.10;3.60;;;;;;;;;;5051587;28;20437;-74
2024/01/11 11:18:21;;;;;;;59.47;4.77;;;;;;;;;;5051408;28;20480;-75
2024/01/11 11:20:48;;;;;;;57.47;4.50;;;;;;;;;;5051586;28;20961;-74
2024/01/11 11:23:17;;;;;;;59.00;4.30;;;;;;;;;;5051242;28;20469;-74
2024/01/11 11:25:44;;;;;;;60.20;5.87;;;;;;;;;;5051472;28;20486;-74
2024/01/11 11:28:13;;;;;;;58.60;4.00;;;;;;;;;;5051881;28;20470;-74
2024/01/11 11:30:41;;;;;;;59.40;4.77;;;;;;;;;;5051729;28;20796;-75
2024/01/11 11:33:17;;;;;;;58.27;5.30;;;;;;;;;;5051160;28;21017;-75
2024/01/11 11:35:44;;;;;;;61.90;4.97;;;;;;;;;;5050939;28;20450;-74
2024/01/11 11:38:18;;;;;;;61.10;5.97;;;;;;;;;;5051050;28;20459;-74
2024/01/11 11:40:48;;;;;;;58.10;4.30;;;;;;;;;;5051484;28;20462;-74
2024/01/11 11:43:17;;;;;;;60.70;5.50;;;;;;;;;;5051394;28;20475;-74
2024/01/11 11:45:44;;;;;;;60.43;6.00;;;;;;;;;;5050649;28;21044;-74
2024/01/11 11:48:35;;;;;;;59.47;4.77;;;;;;;;;;5051016;28;20455;-74
2024/01/11 11:51:08;;;;;;;61.43;4.83;;;;;;;;;;5040850;28;20459;-74
2024/01/11 11:53:36;;;;;;;59.70;4.23;;;;;;;;;;5051055;28;20494;-74
2024/01/11 11:56:03;;;;;;;59.50;6.30;;;;;;;;;;5050883;28;20463;-74
2024/01/11 11:58:30;;;;;;;58.47;4.40;;;;;;;;;;5050885;28;20505;-74
2024/01/11 12:00:59;;;;;;;58.70;4.87;;;;;;;;;;5050849;28;20452;-75
2024/01/11 12:03:30;;;;;;;59.23;5.63;;;;;;;;;;5054049;28;20476;-75
2024/01/11 12:05:57;;;;;;;62.10;4.67;;;;;;;;;;5054937;28;20851;-74
2024/01/11 12:08:26;;;;;;;58.10;4.37;;;;;;;;;;5054950;28;20454;-74
2024/01/11 12:10:53;;;;;;;58.27;4.50;;;;;;;;;;5046816;28;20456;-74
2024/01/11 12:13:20;;;;;;;60.00;5.83;;;;;;;;;;5055095;28;20478;-74
2024/01/11 12:15:47;;;;;;;60.87;5.67;;;;;;;;;;5054718;28;20451;-74
2024/01/11 12:18:15;;;;;;;59.90;5.30;;;;;;;;;;5054430;28;20458;-73
2024/01/11 12:20:42;;;;;;;62.13;6.93;;;;;;;;;;5054459;28;20456;-73
2024/01/11 12:23:09;;;;;;;62.07;7.50;;;;;;;;;;5054319;28;20470;-73
2024/01/11 12:25:38;;;;;;;61.03;5.67;;;;;;;;;;5053716;28;20449;-73
2024/01/11 12:28:05;;;;;;;59.00;4.47;;;;;;;;;;5054469;28;20449;-74
2024/01/11 12:30:32;;;;;;;58.70;4.90;;;;;;;;;;5054517;28;20454;-74
2024/01/11 12:33:01;;;;;;;60.90;5.00;;;;;;;;;;5051047;28;21066;-73
2024/01/11 12:35:28;;;;;;;59.90;5.00;;;;;;;;;;5052799;28;20453;-74
2024/01/11 12:37:55;;;;;;;61.67;4.83;;;;;;;;;;5053271;28;20445;-73
2024/01/11 12:40:23;;;;;;;64.57;5.93;;;;;;;;;;5053441;28;20455;-75
2024/01/11 12:42:52;;;;;;;60.10;4.73;;;;;;;;;;5052262;28;20453;-75
2024/01/11 12:45:19;;;;;;;58.03;3.90;;;;;;;;;;5053601;28;20454;-75
2024/01/11 12:47:46;;;;;;;58.53;5.23;;;;;;;;;;5051553;28;20488;-74
2024/01/11 12:50:13;;;;;;;60.37;5.50;;;;;;;;;;5053779;28;20940;-75
2024/01/11 12:52:41;;;;;;;59.20;3.77;;;;;;;;;;5048431;28;20460;-75
2024/01/11 12:55:09;;;;;;;60.50;5.77;;;;;;;;;;5051461;28;20456;-73
2024/01/11 12:57:36;;;;;;;60.10;4.87;;;;;;;;;;5055408;28;21067;-73
2024/01/11 13:00:13;;;;;;;60.10;4.80;;;;;;;;;;5053386;28;20453;-73
2024/01/11 13:02:42;;;;;;;59.30;3.90;;;;;;;;;;5055164;28;20896;-71
2024/01/11 13:05:09;;;;;;;61.70;4.80;;;;;;;;;;5052879;28;20452;-73
2024/01/11 13:07:38;;;;;;;63.53;6.27;;;;;;;;;;5054988;28;20507;-74
2024/01/11 13:10:06;;;;;;;61.57;5.93;;;;;;;;;;5053851;28;20445;-73
2024/01/11 13:12:33;;;;;;;59.47;6.03;;;;;;;;;;5042982;28;20457;-72
2024/01/11 13:15:00;;;;;;;59.97;5.00;;;;;;;;;;5053501;28;20552;-75
2024/01/11 13:17:28;;;;;;;59.00;4.60;;;;;;;;;;5053847;28;20938;-75
2024/01/11 13:19:55;;;;;;;63.67;6.10;;;;;;;;;;5053503;28;20807;-73
2024/01/11 13:22:23;;;;;;;58.80;5.77;;;;;;;;;;5053744;28;20811;-73
2024/01/11 13:24:50;;;;;;;58.40;4.17;;;;;;;;;;5053679;28;20800;-74
2024/01/11 13:27:17;;;;;;;58.80;5.03;;;;;;;;;;5054323;28;20566;-74
2024/01/11 13:29:44;;;;;;;59.10;5.70;;;;;;;;;;5054290;28;20532;-73
2024/01/11 13:32:11;;;;;;;60.67;5.07;;;;;;;;;;5054380;28;20451;-73
2024/01/11 13:34:40;;;;;;;64.03;6.27;;;;;;;;;;5053830;28;20506;-75
2024/01/11 13:37:07;;;;;;;58.67;4.10;;;;;;;;;;5053958;28;20452;-74
2024/01/11 13:39:34;;;;;;;57.80;3.73;;;;;;;;;;5054087;28;20452;-74
2024/01/11 13:42:03;;;;;;;62.80;4.60;;;;;;;;;;5053881;28;20763;-74
2024/01/11 13:44:30;;;;;;;61.10;5.70;;;;;;;;;;5053958;28;20886;-75
2024/01/11 13:46:57;;;;;;;58.43;4.83;;;;;;;;;;5053535;28;20508;-74
2024/01/11 13:49:24;;;;;;;59.10;5.40;;;;;;;;;;5053542;28;20455;-74
2024/01/11 13:51:53;;;;;;;59.67;4.97;;;;;;;;;;5053449;28;20549;-74
2024/01/11 13:54:21;;;;;;;58.00;4.40;;;;;;;;;;5053262;28;21079;-75
2024/01/11 13:56:48;;;;;;;70.00;5.27;;;;;;;;;;5052971;28;20710;-75
2024/01/11 13:59:16;;;;;;;60.73;4.63;;;;;;;;;;5054376;28;20456;-74
2024/01/11 14:01:43;;;;;;;62.40;4.70;;;;;;;;;;5054191;28;20455;-74
2024/01/11 14:04:10;;;;;;;57.87;4.03;;;;;;;;;;5054602;28;20476;-74
2024/01/11 14:06:37;;;;;;;59.07;4.03;;;;;;;;;;5054311;28;20487;-75
2024/01/11 14:09:09;;;;;;;59.33;4.67;;;;;;;;;;5054577;28;20454;-75
2024/01/11 14:11:36;;;;;;;63.37;6.90;;;;;;;;;;5053971;28;20935;-75
2024/01/11 14:14:06;;;;;;;63.03;5.13;;;;;;;;;;5054125;28;20479;-75
2024/01/11 14:16:33;;;;;;;61.57;4.40;;;;;;;;;;5053870;28;20494;-75
2024/01/11 14:19:01;;;;;;;58.43;4.00;;;;;;;;;;5054119;28;20458;-75
2024/01/11 14:21:28;;;;;;;63.73;5.13;;;;;;;;;;5054239;28;20511;-74
2024/01/11 14:23:55;;;;;;;67.50;5.87;;;;;;;;;;5053187;28;20492;-75
2024/01/11 14:26:23;;;;;;;61.23;5.10;;;;;;;;;;5052895;28;20477;-74
2024/01/11 14:28:51;;;;;;;62.77;4.77;;;;;;;;;;5053949;28;20460;-74
2024/01/11 14:31:18;;;;;;;60.00;5.23;;;;;;;;;;5053570;28;20702;-75
2024/01/11 14:33:45;;;;;;;64.43;4.60;;;;;;;;;;5052952;28;20491;-75
2024/01/11 14:36:14;;;;;;;58.70;4.30;;;;;;;;;;5052742;28;20800;-75